x

South Georgian Bay (45143) Wave Buoy

1:00am - Sun 24th May 2015 All times are CDT. -5 hours from GMT.

  • Sig Wave height 1.3ft
  • Peak Period 3s
  • Wind
    13mph, 18mph gusts
  • Sea Temp 38°f
  • Air Temp 46°f
  • Sea Pressure 1022.8mb
  • South Georgian Bay
  • South Georgian Bay

More Historic Weather Station data

Upgrade to MSW Pro to gain access to the past 30 days of data for over 8000 Wavebouys and Weather Stations around the globe.

Join Pro

Comparision Forecast

View Surf forecast
   
Sun 05/24 1:00am 1.3ft 3s 13 18 mph 1022.8mb 38f 46f
12:00am 1.3ft 3s 13
mph
1022.7mb 38f 46f
Sat 05/23 11:00pm 1.3ft 3s 16
mph
1022.4mb 38f 47f
10:00pm 1.3ft 3s 16 18 mph 1022.2mb 38f 49f
9:00pm 1ft 3s 16
mph
1022.1mb 38f 49f
8:00pm 1.3ft 3s 11
mph
1022mb 38f 47f
7:00pm 1.3ft 3s 13 16 mph 1021.9mb 38f 49f
6:00pm 1.3ft 3s 13
mph
1022.2mb 38f 48f
5:00pm 1.6ft 3s 9 11 mph 1023.2mb 38f 47f
4:00pm 1.3ft 3s 13
mph
1023.7mb 38f 47f
3:00pm 1ft 3s 7
mph
1024.7mb 38f 46f
2:00pm 1.3ft 4s 9
mph
1025.4mb 38f 43f
1:00pm 1.3ft 3s 7 9 mph 1026.2mb 38f 43f
12:00pm 1ft 3s 4
mph
1027.1mb 38f 46f
11:00am 1ft 3s 7 9 mph 1027.6mb 38f 45f
10:00am 1ft 3s 7
mph
1028.4mb 38f 42f
9:00am 1ft 3s 7 9 mph 1028.6mb 38f 41f
8:00am 1.3ft 3s 11 13 mph 1028.9mb 38f 39f
7:00am 1.3ft 4s 11 13 mph 1028.7mb 37f 38f
6:00am 1.6ft 4s 11 13 mph 1028.3mb 37f 38f
5:00am 1.6ft 3s 16 18 mph 1027.8mb 37f 37f
4:00am 1.6ft 3s 16 18 mph 1027.5mb 37f 39f
3:00am 1ft 2s 13 16 mph 1027mb 37f 39f
2:00am 1ft 2s 9 11 mph 1026.5mb 37f 39f
1:00am 1ft 2s 13 16 mph 1026.2mb 37f 39f
12:00am 1ft 2s 11
mph
1025.7mb 37f 39f
Fri 05/22 11:00pm 0.7ft 4s 11 13 mph 1025.9mb 37f 40f
10:00pm 0.7ft 3s 9 11 mph 1026mb 37f 39f
9:00pm 0.7ft 3s 9
mph
1026mb 37f 40f
8:00pm 0.7ft 3s 7 9 mph 1025.5mb 37f 39f
7:00pm 0.7ft 3s 7 9 mph 1025.2mb 38f 39f
6:00pm 0.7ft 3s 7 9 mph 1024.8mb 38f 40f
5:00pm 1ft 4s 4
mph
1024.6mb 38f 39f
4:00pm 1ft 4s 7
mph
1024.5mb 38f 38f
3:00pm 1.6ft 4s 7
mph
1024.1mb 38f 38f
2:00pm 1.6ft 4s 9 13 mph 1023.4mb 38f 38f
1:00pm 2ft 4s 9 11 mph 1023.1mb 38f 38f
12:00pm 2.5ft 5s 13 18 mph 1022.4mb 38f 37f
11:00am 2.5ft 4s 13 18 mph 1022.2mb 37f 37f
10:00am 3ft 4s 16 18 mph 1021.7mb 37f 37f
9:00am 2.5ft 4s 18 20 mph 1020.8mb 37f 37f
8:00am 2ft 3s 16 18 mph 1019.9mb 37f 38f
7:00am 2ft 4s 13
mph
1019.2mb 37f 38f
6:00am 2ft 4s 11 13 mph 1018.4mb 37f 39f
5:00am 1.6ft 3s 13 18 mph 1017.2mb 37f 40f
4:00am 1.6ft 3s 13 18 mph 1016.4mb 37f 40f
3:00am 1.6ft 4s 16 18 mph 1015.4mb 37f 40f
2:00am 1.6ft 4s 13 16 mph 1014.4mb 37f 40f
1:00am 1.6ft 4s 11
mph
1013.8mb 37f 39f
12:00am 2ft 3s 11
mph
1013.2mb 37f 40f
Thu 05/21 11:00pm 1.6ft 3s 11 13 mph 1012.5mb 37f 40f
10:00pm 1.6ft 3s 16 18 mph 1011.4mb 37f 41f
9:00pm 1.3ft 3s 13 16 mph 1011.1mb 37f 44f
8:00pm 1.3ft 3s 13 16 mph 1010.8mb 37f 44f
7:00pm 1ft 3s 16 18 mph 1010mb 37f 46f
6:00pm 1.3ft 3s 9 11 mph 1010mb 37f 46f
5:00pm 1.3ft 3s 9 11 mph 1010.1mb 37f 44f
4:00pm 1ft 3s 13 18 mph 1009.9mb 38f 49f
3:00pm 1.3ft 3s 9
mph
1010.7mb 38f 45f
2:00pm 1ft 3s 13 16 mph 1010.8mb 38f 47f
1:00pm 1.3ft 3s 13
mph
1011.5mb 37f 46f
12:00pm 1ft 3s 13
mph
1012.2mb 37f 46f
11:00am 0.7ft 2s 13 16 mph 1012.8mb 37f 45f
10:00am 1ft 4s 4 7 mph 1013.4mb 37f 43f
9:00am 1ft 2s 7 9 mph 1013.6mb 37f 41f
8:00am 1ft 3s 11
mph
1013.9mb 37f 41f
7:00am 1.3ft 3s 11 13 mph 1014.4mb 37f 41f
6:00am 1.3ft 3s 11
mph
1014.7mb 37f 40f
5:00am 1ft 2s 11
mph
1014.9mb 37f 40f
4:00am 1ft 3s 9
mph
1015mb 37f 39f
3:00am 1ft 2s 16 18 mph 1015.1mb 37f 41f
2:00am 1ft 2s 11 13 mph 1015.5mb 37f 40f
1:00am 1ft 2s 11
mph
1015.8mb 37f 41f
12:00am 1ft 4s 11
mph
1016.1mb 37f 40f
Wed 05/20 11:00pm 1ft 4s 11
mph
1016.2mb 37f 40f
10:00pm 1.3ft 4s 11
mph
1016.6mb 37f 40f
9:00pm 1.3ft 4s 11
mph
1016.9mb 37f 40f
8:00pm 1.6ft 4s 11 13 mph 1017.2mb 37f 40f
7:00pm 1.6ft 4s 11 13 mph 1018mb 37f 40f
6:00pm 1.6ft 4s 11
mph
1018.3mb 37f 40f
5:00pm 1.6ft 4s 11
mph
1019.1mb 37f 41f
4:00pm 1.6ft 4s 9
mph
1019.3mb 37f 40f
3:00pm 1.6ft 4s 11
mph
1019.9mb 37f 41f
2:00pm 1.6ft 4s 9 11 mph 1020.1mb 37f 40f
1:00pm 1.3ft 4s 9 11 mph 1020.4mb 37f 40f
12:00pm 1.6ft 4s 9 11 mph 1020.9mb 37f 39f
11:00am 1.6ft 4s 9 11 mph 1021.2mb 37f 38f
10:00am 2ft 5s 4 7 mph 1021.2mb 37f 38f
9:00am 2.5ft 5s 9 11 mph 1021.1mb 37f 37f
8:00am 2.5ft 5s 13 16 mph 1021.2mb 37f 37f